Time;durP1;ratioP1;P1;durP2;ratioP2;P2;SDS_P1;SDS_P2;PMS_P1;PMS_P2;Temp;Humidity;BMP_temperature;BMP_pressure;BME280_temperature;BME280_humidity;BME280_pressure;Samples;Min_cycle;Max_cycle;Signal;HPM_P1;HPM_P2
2022/03/23 00:01:47;;;;;;;33.47;22.80;;;7.80;99.90;;;;;;5102344;28;20044;-66
2022/03/23 00:04:12;;;;;;;27.48;19.33;;;7.70;99.90;;;;;;5099545;28;20143;-66
2022/03/23 00:06:38;;;;;;;23.75;19.20;;;7.70;99.90;;;;;;5129275;27;20100;-66
2022/03/23 00:09:04;;;;;;;23.42;18.15;;;7.70;99.90;;;;;;5101248;27;20948;-65
2022/03/23 00:11:30;;;;;;;24.63;17.65;;;7.60;99.90;;;;;;5103343;27;20501;-65
2022/03/23 00:13:56;;;;;;;27.17;18.58;;;7.60;99.90;;;;;;5097396;27;20043;-66
2022/03/23 00:16:22;;;;;;;25.58;19.35;;;7.60;99.90;;;;;;5101670;28;20511;-65
2022/03/23 00:18:47;;;;;;;28.77;20.23;;;7.60;99.90;;;;;;5102403;27;20119;-66
2022/03/23 00:21:14;;;;;;;27.92;21.13;;;7.50;99.90;;;;;;5100632;27;20482;-66
2022/03/23 00:23:39;;;;;;;37.17;22.40;;;7.50;99.90;;;;;;5102789;27;20550;-66
2022/03/23 00:26:06;;;;;;;37.28;27.48;;;7.40;99.90;;;;;;5102259;27;20043;-66
2022/03/23 00:28:32;;;;;;;29.98;20.77;;;7.50;99.90;;;;;;5098379;27;20504;-66
2022/03/23 00:30:58;;;;;;;31.52;23.42;;;7.40;99.90;;;;;;5103243;27;20128;-66
2022/03/23 00:33:23;;;;;;;38.42;25.73;;;7.40;99.90;;;;;;5100506;28;20101;-66
2022/03/23 00:35:49;;;;;;;27.88;21.90;;;7.40;99.90;;;;;;5102119;28;20043;-65
2022/03/23 00:38:17;;;;;;;44.22;29.58;;;7.40;99.90;;;;;;5102223;27;20123;-66
2022/03/23 00:40:44;;;;;;;32.25;19.80;;;7.30;99.90;;;;;;5104605;27;20035;-66
2022/03/23 00:43:10;;;;;;;30.20;23.33;;;7.40;99.90;;;;;;5106953;27;20521;-66
2022/03/23 00:45:37;;;;;;;28.98;22.65;;;7.30;99.90;;;;;;5129697;27;20083;-66
2022/03/23 00:48:03;;;;;;;43.70;32.33;;;7.30;99.90;;;;;;5101503;27;20048;-65
2022/03/23 00:50:30;;;;;;;41.45;32.13;;;7.30;99.90;;;;;;5102001;27;20121;-65
2022/03/23 00:52:55;;;;;;;42.97;28.52;;;7.30;99.90;;;;;;5101772;27;20047;-65
2022/03/23 00:55:21;;;;;;;45.40;31.83;;;7.30;99.90;;;;;;5098639;27;20409;-65
2022/03/23 00:57:47;;;;;;;47.10;34.58;;;7.20;99.90;;;;;;5103440;28;20032;-65
2022/03/23 01:00:16;;;;;;;57.88;34.90;;;7.20;99.90;;;;;;5102864;27;20690;-65
2022/03/23 01:02:43;;;;;;;49.80;34.97;;;7.20;99.90;;;;;;5102115;28;20582;-65
2022/03/23 01:05:11;;;;;;;52.42;35.85;;;7.10;99.90;;;;;;5127485;27;20039;-66
2022/03/23 01:07:38;;;;;;;44.85;34.22;;;7.20;99.90;;;;;;5102892;27;20051;-66
2022/03/23 01:10:05;;;;;;;52.97;35.78;;;7.10;99.90;;;;;;5095578;27;20043;-66
2022/03/23 01:12:31;;;;;;;48.75;32.97;;;7.10;99.90;;;;;;5099370;27;20055;-65
2022/03/23 01:14:58;;;;;;;44.88;33.40;;;7.10;99.90;;;;;;5100723;27;20046;-65
2022/03/23 01:17:24;;;;;;;44.08;32.38;;;7.10;99.90;;;;;;5104053;27;20973;-65
2022/03/23 01:19:51;;;;;;;40.20;30.77;;;7.20;99.90;;;;;;5102438;27;20435;-66
2022/03/23 01:22:16;;;;;;;35.53;26.40;;;7.10;99.90;;;;;;5107361;27;20386;-66
2022/03/23 01:24:43;;;;;;;41.13;28.85;;;7.10;99.90;;;;;;5105007;27;20043;-66
2022/03/23 01:27:09;;;;;;;39.90;27.52;;;7.00;99.90;;;;;;5104400;27;20043;-66
2022/03/23 01:29:35;;;;;;;43.53;31.92;;;7.00;99.90;;;;;;5097010;28;20428;-66
2022/03/23 01:32:01;;;;;;;41.65;29.90;;;7.00;99.90;;;;;;5097814;28;20039;-66
2022/03/23 01:34:27;;;;;;;42.72;32.28;;;7.00;99.90;;;;;;5098052;28;20042;-65
2022/03/23 01:36:52;;;;;;;37.28;29.23;;;7.00;99.90;;;;;;5102675;27;20046;-65
2022/03/23 01:39:18;;;;;;;44.83;30.58;;;6.90;99.90;;;;;;5098774;28;20110;-65
2022/03/23 01:41:45;;;;;;;41.47;28.50;;;7.00;99.90;;;;;;5101566;28;20493;-65
2022/03/23 01:44:20;;;;;;;43.00;28.88;;;7.00;99.90;;;;;;5100252;28;20455;-65
2022/03/23 01:47:08;;;;;;;36.78;26.50;;;7.00;99.90;;;;;;5102111;28;20134;-66
2022/03/23 01:49:43;;;;;;;36.47;26.30;;;7.00;99.90;;;;;;5099880;28;20702;-66
2022/03/23 01:52:11;;;;;;;39.30;25.95;;;6.90;99.90;;;;;;5100421;28;20838;-66
2022/03/23 01:54:38;;;;;;;33.65;24.95;;;7.00;99.90;;;;;;5126661;27;20108;-66
2022/03/23 01:57:05;;;;;;;31.75;23.48;;;6.90;99.90;;;;;;5105531;28;20047;-66
2022/03/23 01:59:32;;;;;;;34.13;24.85;;;7.00;99.90;;;;;;5100962;28;20039;-66
2022/03/23 02:01:57;;;;;;;34.72;25.65;;;7.00;99.90;;;;;;5096493;28;20036;-65
2022/03/23 02:04:23;;;;;;;35.95;25.02;;;6.90;99.90;;;;;;5111762;28;20043;-65
2022/03/23 02:06:50;;;;;;;28.63;20.88;;;7.00;99.90;;;;;;5098568;28;20607;-66
2022/03/23 02:09:16;;;;;;;28.15;20.73;;;6.90;99.90;;;;;;5128304;27;20036;-65
2022/03/23 02:11:42;;;;;;;28.58;21.83;;;6.90;99.90;;;;;;5096989;28;20047;-65
2022/03/23 02:14:09;;;;;;;28.65;21.27;;;6.80;99.90;;;;;;5129567;27;20058;-66
2022/03/23 02:16:42;;;;;;;33.60;24.52;;;6.80;99.90;;;;;;5098288;28;20031;-66
2022/03/23 02:19:08;;;;;;;36.75;25.65;;;6.70;99.90;;;;;;5097774;28;20035;-66
2022/03/23 02:21:34;;;;;;;36.15;25.98;;;6.70;99.90;;;;;;5097247;28;20085;-66
2022/03/23 02:24:04;;;;;;;39.33;27.55;;;6.70;99.90;;;;;;5097212;28;20039;-66
2022/03/23 02:26:31;;;;;;;44.38;29.10;;;6.60;99.90;;;;;;5098849;28;20089;-66
2022/03/23 02:28:57;;;;;;;34.92;24.20;;;6.70;99.90;;;;;;5102918;28;20115;-66
2022/03/23 02:31:23;;;;;;;33.13;24.05;;;6.60;99.90;;;;;;5101052;28;20040;-66
2022/03/23 02:33:48;;;;;;;35.53;25.50;;;6.60;99.90;;;;;;5100322;28;20201;-65
2022/03/23 02:36:14;;;;;;;33.72;23.25;;;6.50;99.90;;;;;;5100546;28;20542;-65
2022/03/23 02:38:40;;;;;;;35.58;25.65;;;6.50;99.90;;;;;;5104093;27;20032;-67
2022/03/23 02:41:05;;;;;;;32.65;24.83;;;6.40;99.90;;;;;;5100929;27;20092;-67
2022/03/23 02:43:31;;;;;;;31.00;23.73;;;6.30;99.90;;;;;;5105667;28;20127;-67
2022/03/23 02:45:56;;;;;;;30.75;25.30;;;6.40;99.90;;;;;;5103541;28;20040;-67
2022/03/23 02:48:22;;;;;;;35.05;24.58;;;6.30;99.90;;;;;;5103191;28;20596;-67
2022/03/23 02:50:48;;;;;;;37.53;29.23;;;6.30;99.90;;;;;;5100365;28;20519;-67
2022/03/23 03:01:56;;;;;;;32.95;25.42;;;6.20;99.90;;;;;;5131175;27;20036;-67
2022/03/23 03:04:23;;;;;;;41.97;28.77;;;6.10;99.90;;;;;;5100824;28;20036;-67
2022/03/23 03:06:50;;;;;;;42.35;29.95;;;6.10;99.90;;;;;;5100752;28;20084;-68
2022/03/23 03:09:17;;;;;;;50.08;35.15;;;6.00;99.90;;;;;;5101322;27;20040;-67
2022/03/23 03:11:43;;;;;;;41.05;27.92;;;6.00;99.90;;;;;;5102640;28;20047;-67
2022/03/23 03:14:11;;;;;;;43.20;30.10;;;6.10;99.90;;;;;;5100422;28;20044;-68
2022/03/23 03:16:37;;;;;;;40.15;28.60;;;5.90;99.90;;;;;;5101465;28;20043;-68
2022/03/23 03:19:05;;;;;;;49.97;32.58;;;5.90;99.90;;;;;;5098581;28;20471;-68
2022/03/23 03:21:32;;;;;;;39.10;25.65;;;5.90;99.90;;;;;;5100664;28;20473;-67
2022/03/23 03:23:58;;;;;;;32.13;23.73;;;5.90;99.90;;;;;;5099055;28;20067;-67
2022/03/23 03:26:24;;;;;;;33.45;24.70;;;5.90;99.90;;;;;;5103142;27;20118;-67
2022/03/23 03:28:50;;;;;;;45.58;29.92;;;5.90;99.90;;;;;;5119352;27;20176;-67
2022/03/23 03:31:16;;;;;;;43.80;31.05;;;5.80;99.90;;;;;;5101787;28;20047;-67
2022/03/23 03:33:43;;;;;;;35.15;25.02;;;5.80;99.90;;;;;;5104987;28;20042;-68
2022/03/23 03:36:09;;;;;;;35.85;23.90;;;5.80;99.90;;;;;;5133821;27;20091;-68
2022/03/23 03:38:36;;;;;;;41.10;27.38;;;5.70;99.90;;;;;;5104879;27;20032;-68
2022/03/23 03:41:02;;;;;;;44.38;27.27;;;5.70;99.90;;;;;;5100918;27;20756;-68
2022/03/23 03:43:28;;;;;;;40.08;28.48;;;5.70;99.90;;;;;;5102572;28;20081;-67
2022/03/23 03:45:54;;;;;;;36.17;25.88;;;5.70;99.90;;;;;;5105744;28;20081;-67
2022/03/23 03:48:20;;;;;;;36.95;24.38;;;5.70;99.90;;;;;;5102124;28;20040;-67
2022/03/23 03:50:47;;;;;;;31.95;24.63;;;5.70;99.90;;;;;;5099534;28;20053;-67
2022/03/23 03:53:13;;;;;;;34.20;24.85;;;5.70;99.90;;;;;;5103581;27;20607;-68
2022/03/23 03:55:39;;;;;;;33.95;22.15;;;5.70;99.90;;;;;;5103547;27;20147;-68
2022/03/23 03:58:06;;;;;;;33.25;25.17;;;5.60;99.90;;;;;;5102162;28;20032;-67
2022/03/23 04:00:35;;;;;;;42.38;29.00;;;5.60;99.90;;;;;;5102591;27;20515;-68
2022/03/23 04:03:02;;;;;;;40.60;28.48;;;5.60;99.90;;;;;;5102748;28;20043;-68
2022/03/23 04:05:28;;;;;;;43.28;29.17;;;5.60;99.90;;;;;;5101051;28;20093;-67
2022/03/23 04:07:55;;;;;;;39.67;27.45;;;5.50;99.90;;;;;;5102196;28;20043;-68
2022/03/23 04:10:21;;;;;;;40.45;27.23;;;5.70;99.90;;;;;;5101580;28;20123;-67
2022/03/23 04:12:47;;;;;;;45.70;26.35;;;5.50;99.90;;;;;;5103262;28;20385;-68
2022/03/23 04:15:14;;;;;;;47.17;31.58;;;5.50;99.90;;;;;;5133907;27;20106;-68
2022/03/23 04:17:41;;;;;;;52.33;36.08;;;5.50;99.90;;;;;;5104658;28;20047;-68
2022/03/23 04:20:08;;;;;;;52.22;36.03;;;5.50;99.90;;;;;;5100527;28;20040;-68
2022/03/23 04:22:33;;;;;;;50.55;35.92;;;5.40;99.90;;;;;;5101488;27;20073;-67
2022/03/23 04:25:00;;;;;;;51.65;33.22;;;5.40;99.90;;;;;;5100638;28;20044;-67
2022/03/23 04:27:26;;;;;;;45.53;30.67;;;5.30;99.90;;;;;;5132772;27;20119;-67
2022/03/23 04:29:51;;;;;;;53.00;36.95;;;5.30;99.90;;;;;;5101528;28;20123;-67
2022/03/23 04:32:17;;;;;;;45.60;32.80;;;5.30;99.90;;;;;;5104339;28;20027;-67
2022/03/23 04:34:43;;;;;;;51.55;35.58;;;5.30;99.90;;;;;;5104129;27;20423;-67
2022/03/23 04:37:09;;;;;;;53.50;36.63;;;5.20;99.90;;;;;;5104119;28;20039;-67
2022/03/23 04:39:34;;;;;;;49.67;35.58;;;5.20;99.90;;;;;;5104457;28;20047;-67
2022/03/23 04:42:00;;;;;;;54.30;35.42;;;5.20;99.90;;;;;;5102790;28;20035;-67
2022/03/23 04:44:26;;;;;;;55.10;36.80;;;5.20;99.90;;;;;;5105429;28;20051;-67
2022/03/23 04:46:51;;;;;;;46.05;32.42;;;5.10;99.90;;;;;;5103779;28;20130;-67
2022/03/23 04:49:17;;;;;;;49.75;35.58;;;5.10;99.90;;;;;;5099795;28;20028;-67
2022/03/23 04:51:42;;;;;;;47.30;33.05;;;5.10;99.90;;;;;;5103370;27;20040;-67
2022/03/23 04:54:08;;;;;;;45.53;33.03;;;5.10;99.90;;;;;;5101335;28;20044;-67
2022/03/23 04:56:34;;;;;;;49.53;32.67;;;5.10;99.90;;;;;;5099915;28;20040;-67
2022/03/23 04:58:59;;;;;;;48.85;32.97;;;5.10;99.90;;;;;;5101708;28;20040;-67
2022/03/23 05:01:25;;;;;;;50.78;35.30;;;5.20;99.90;;;;;;5102320;28;20023;-67
2022/03/23 05:03:52;;;;;;;38.17;28.58;;;5.10;99.90;;;;;;5100999;28;20040;-67
2022/03/23 05:06:18;;;;;;;35.80;25.83;;;5.20;99.90;;;;;;5101420;28;20047;-67
2022/03/23 05:08:44;;;;;;;33.80;26.13;;;5.10;99.90;;;;;;5097251;28;20087;-68
2022/03/23 05:11:10;;;;;;;40.22;28.58;;;5.10;99.90;;;;;;5099710;27;20071;-67
2022/03/23 05:13:36;;;;;;;41.95;29.42;;;5.10;99.90;;;;;;5103650;27;20512;-67
2022/03/23 05:16:03;;;;;;;44.38;31.55;;;5.10;99.90;;;;;;5106576;27;20449;-67
2022/03/23 05:18:29;;;;;;;46.25;31.95;;;5.10;99.90;;;;;;5102740;27;20067;-67
2022/03/23 05:20:55;;;;;;;47.83;34.17;;;5.10;99.90;;;;;;5101388;28;20036;-67
2022/03/23 05:23:21;;;;;;;47.95;32.72;;;5.10;99.90;;;;;;5101706;28;20078;-67
2022/03/23 05:25:46;;;;;;;54.38;36.03;;;5.10;99.90;;;;;;5101542;28;20046;-67
2022/03/23 05:28:13;;;;;;;46.30;34.05;;;5.10;99.90;;;;;;5098868;28;20055;-67
2022/03/23 05:30:39;;;;;;;53.13;36.55;;;5.10;99.90;;;;;;5103152;28;20044;-67
2022/03/23 05:33:05;;;;;;;49.33;33.60;;;5.10;99.90;;;;;;5100426;27;20051;-67
2022/03/23 05:35:30;;;;;;;47.28;34.10;;;5.10;99.90;;;;;;5098492;28;20028;-67
2022/03/23 05:37:56;;;;;;;45.38;33.10;;;5.10;99.90;;;;;;5096968;27;20036;-67
2022/03/23 05:40:22;;;;;;;42.42;30.73;;;5.10;99.90;;;;;;5103972;27;20047;-67
2022/03/23 05:42:49;;;;;;;41.75;29.50;;;5.10;99.90;;;;;;5098295;28;20104;-67
2022/03/23 05:45:16;;;;;;;42.33;30.55;;;5.10;99.90;;;;;;5096653;28;20043;-67
2022/03/23 05:47:42;;;;;;;38.30;27.30;;;5.20;99.90;;;;;;5099235;28;20046;-67
2022/03/23 05:50:09;;;;;;;37.35;26.92;;;5.20;99.90;;;;;;5095330;28;20599;-67
2022/03/23 05:52:36;;;;;;;35.03;25.48;;;5.30;99.90;;;;;;5100669;28;20123;-67
2022/03/23 05:55:03;;;;;;;37.25;26.10;;;5.40;99.90;;;;;;5128841;27;20478;-67
2022/03/23 05:57:29;;;;;;;39.70;27.48;;;5.60;99.90;;;;;;5129633;27;20039;-67
2022/03/23 05:59:55;;;;;;;38.50;27.35;;;5.70;99.90;;;;;;5099296;28;20044;-67
2022/03/23 06:02:21;;;;;;;38.80;27.30;;;5.90;99.90;;;;;;5097399;28;20482;-67
2022/03/23 06:04:46;;;;;;;45.05;30.92;;;6.10;99.90;;;;;;5100807;28;20045;-67
2022/03/23 06:07:12;;;;;;;44.63;32.75;;;6.30;99.90;;;;;;5129154;27;20067;-67
2022/03/23 06:09:38;;;;;;;46.13;30.45;;;6.70;99.90;;;;;;5099385;28;20481;-67
2022/03/23 06:12:05;;;;;;;44.00;30.50;;;7.20;99.90;;;;;;5102654;27;20084;-67
2022/03/23 06:14:32;;;;;;;43.00;33.42;;;7.80;99.90;;;;;;5105163;28;20035;-67
2022/03/23 06:16:58;;;;;;;43.45;30.27;;;8.50;99.90;;;;;;5105630;28;20040;-68
2022/03/23 06:19:24;;;;;;;43.65;29.13;;;9.20;99.90;;;;;;5099955;28;20050;-68
2022/03/23 06:21:49;;;;;;;43.05;32.25;;;9.90;99.90;;;;;;5105173;28;20051;-68
2022/03/23 06:24:15;;;;;;;38.50;29.63;;;10.70;99.90;;;;;;5103028;27;20043;-67
2022/03/23 06:26:41;;;;;;;43.80;29.45;;;11.50;99.90;;;;;;5105863;28;20142;-68
2022/03/23 06:29:06;;;;;;;35.88;28.58;;;12.20;99.90;;;;;;5099915;28;20449;-68
2022/03/23 06:31:32;;;;;;;43.25;27.73;;;13.10;99.90;;;;;;5131934;27;20044;-68
2022/03/23 06:33:59;;;;;;;30.88;24.88;;;13.70;99.50;;;;;;5135915;27;20054;-68
2022/03/23 06:36:25;;;;;;;32.47;25.05;;;14.40;96.50;;;;;;5104025;28;20032;-68
2022/03/23 06:38:51;;;;;;;30.40;25.13;;;15.10;94.00;;;;;;5103763;27;20040;-69
2022/03/23 06:41:17;;;;;;;35.75;27.90;;;15.80;91.70;;;;;;5100067;28;20036;-68
2022/03/23 06:43:43;;;;;;;35.60;30.05;;;16.40;88.10;;;;;;5096460;27;20067;-68
2022/03/23 06:46:09;;;;;;;33.00;27.90;;;17.00;84.00;;;;;;5099889;27;20082;-69
2022/03/23 06:48:35;;;;;;;35.05;27.40;;;17.60;81.40;;;;;;5103284;28;20071;-69
2022/03/23 06:51:01;;;;;;;35.30;30.08;;;18.30;78.00;;;;;;5105826;28;20055;-69
2022/03/23 06:53:26;;;;;;;37.17;30.55;;;19.00;74.20;;;;;;5134280;27;20410;-67
2022/03/23 06:55:52;;;;;;;35.55;29.55;;;19.70;71.20;;;;;;5129607;27;20115;-66
2022/03/23 06:58:18;;;;;;;38.40;30.75;;;20.40;68.10;;;;;;5099829;28;20032;-68
2022/03/23 07:00:44;;;;;;;36.30;28.50;;;20.90;65.70;;;;;;5130191;27;20078;-68
2022/03/23 07:03:10;;;;;;;36.80;30.77;;;21.20;63.50;;;;;;5103795;28;20051;-69
2022/03/23 07:05:36;;;;;;;38.83;28.75;;;21.40;63.70;;;;;;5102197;27;20354;-67
2022/03/23 07:10:49;;;;;;;36.20;29.00;;;21.50;60.20;;;;;;5128047;27;20047;-67
2022/03/23 07:13:15;;;;;;;38.00;30.45;;;21.10;60.50;;;;;;5132801;27;20053;-68
2022/03/23 07:15:42;;;;;;;36.50;30.33;;;20.60;61.10;;;;;;5098912;28;20411;-68
2022/03/23 07:18:09;;;;;;;37.70;28.30;;;20.20;62.10;;;;;;5099360;28;20032;-67
2022/03/23 07:20:35;;;;;;;40.72;29.05;;;19.80;62.40;;;;;;5080852;28;20043;-67
2022/03/23 07:23:01;;;;;;;38.90;26.27;;;19.50;62.10;;;;;;5100930;28;20439;-67
2022/03/23 07:25:26;;;;;;;36.38;29.90;;;19.40;62.80;;;;;;5099098;27;20044;-67
2022/03/23 07:27:52;;;;;;;32.47;27.85;;;19.40;62.80;;;;;;5100818;28;20061;-68
2022/03/23 07:30:18;;;;;;;37.55;26.58;;;19.20;62.80;;;;;;5097638;27;20040;-67
2022/03/23 07:32:43;;;;;;;30.25;25.63;;;19.10;62.80;;;;;;5095617;28;20048;-68
2022/03/23 07:35:09;;;;;;;37.08;26.67;;;18.90;62.50;;;;;;5101074;28;20040;-68
2022/03/23 07:37:35;;;;;;;31.05;25.35;;;18.80;62.00;;;;;;5102740;28;20439;-67
2022/03/23 07:40:01;;;;;;;31.20;24.08;;;18.70;62.20;;;;;;5130963;27;20032;-68
2022/03/23 07:42:26;;;;;;;33.55;25.67;;;18.30;63.10;;;;;;5096554;27;20070;-68
2022/03/23 07:44:52;;;;;;;31.15;25.50;;;17.80;62.50;;;;;;5131007;27;20103;-68
2022/03/23 07:47:17;;;;;;;29.90;26.00;;;17.10;61.40;;;;;;5098941;27;20107;-68
2022/03/23 07:49:43;;;;;;;31.42;25.58;;;16.60;62.80;;;;;;5101063;27;20097;-68
2022/03/23 07:52:09;;;;;;;31.92;25.38;;;16.20;64.10;;;;;;5100423;27;20043;-68
2022/03/23 07:54:35;;;;;;;32.75;23.95;;;15.90;64.50;;;;;;5099030;28;20389;-67
2022/03/23 07:57:01;;;;;;;26.75;23.85;;;15.40;64.40;;;;;;5099207;27;20039;-67
2022/03/23 07:59:27;;;;;;;25.80;23.00;;;15.20;64.90;;;;;;5131693;27;20036;-68
2022/03/23 08:01:52;;;;;;;26.88;23.60;;;15.00;64.70;;;;;;5101108;27;20032;-68
2022/03/23 08:04:18;;;;;;;36.42;24.27;;;14.70;64.30;;;;;;5100771;27;20435;-68
2022/03/23 08:06:44;;;;;;;24.88;22.00;;;14.50;65.10;;;;;;5098744;27;20482;-67
2022/03/23 08:09:09;;;;;;;30.60;23.67;;;14.40;64.90;;;;;;5102048;27;20036;-67
2022/03/23 08:11:36;;;;;;;31.25;23.67;;;14.20;65.70;;;;;;5101228;27;20118;-67
2022/03/23 08:14:04;;;;;;;31.92;23.40;;;14.20;66.60;;;;;;5100202;28;20036;-67
2022/03/23 08:16:30;;;;;;;35.08;25.55;;;14.30;66.60;;;;;;5099366;28;20035;-67
2022/03/23 08:18:56;;;;;;;33.03;24.08;;;14.20;67.10;;;;;;5096844;27;20043;-68
2022/03/23 08:21:23;;;;;;;36.72;24.65;;;14.20;66.10;;;;;;5099924;27;20047;-68
2022/03/23 08:23:49;;;;;;;29.33;23.55;;;14.20;67.20;;;;;;5099803;28;20043;-67
2022/03/23 08:26:17;;;;;;;24.75;21.80;;;14.30;67.50;;;;;;5094190;27;20054;-68
2022/03/23 08:28:44;;;;;;;33.63;22.90;;;14.40;68.30;;;;;;5131316;27;20048;-67
2022/03/23 08:31:11;;;;;;;28.95;22.08;;;14.50;67.90;;;;;;5100749;27;20044;-67
2022/03/23 08:33:37;;;;;;;28.90;23.33;;;14.60;66.80;;;;;;5096366;28;20503;-67
2022/03/23 08:36:05;;;;;;;24.42;20.98;;;14.70;65.80;;;;;;5081499;28;20100;-67
2022/03/23 08:38:31;;;;;;;27.05;21.20;;;14.70;66.50;;;;;;5098233;27;20057;-68
2022/03/23 08:40:56;;;;;;;26.67;21.27;;;14.80;65.60;;;;;;5097404;28;20426;-68
2022/03/23 08:43:22;;;;;;;25.35;20.73;;;14.90;65.30;;;;;;5095656;27;20051;-68
2022/03/23 08:45:48;;;;;;;25.90;21.25;;;15.00;64.50;;;;;;5096894;28;20539;-68
2022/03/23 08:48:13;;;;;;;22.80;18.77;;;14.90;63.40;;;;;;5099096;27;20051;-68
2022/03/23 08:50:41;;;;;;;27.58;20.15;;;15.10;63.60;;;;;;5097271;28;20078;-68
2022/03/23 08:53:07;;;;;;;26.48;19.33;;;15.10;61.20;;;;;;5104134;27;20093;-68
2022/03/23 08:55:33;;;;;;;21.25;17.58;;;15.30;60.70;;;;;;5088349;27;20059;-68
2022/03/23 08:57:59;;;;;;;22.73;18.73;;;15.30;59.40;;;;;;5087529;27;20161;-67
2022/03/23 09:00:25;;;;;;;18.52;16.55;;;15.40;59.50;;;;;;5086525;27;20130;-67
2022/03/23 09:02:51;;;;;;;19.95;16.85;;;15.40;58.30;;;;;;5089968;27;20065;-68
2022/03/23 09:05:19;;;;;;;20.80;17.50;;;15.50;58.70;;;;;;5093195;28;20032;-68
2022/03/23 09:07:45;;;;;;;23.23;18.23;;;15.60;58.50;;;;;;5099515;28;20520;-68
2022/03/23 09:10:13;;;;;;;20.48;17.50;;;15.80;57.20;;;;;;5129180;27;20042;-68
2022/03/23 09:12:40;;;;;;;20.75;17.63;;;15.90;57.70;;;;;;5095392;27;20063;-68
2022/03/23 09:15:07;;;;;;;19.77;16.33;;;16.00;57.10;;;;;;5096109;27;20829;-68
2022/03/23 09:17:33;;;;;;;20.73;17.25;;;15.90;56.30;;;;;;5100302;27;20130;-68
2022/03/23 09:20:01;;;;;;;22.27;15.77;;;16.10;55.30;;;;;;5116658;27;20118;-68
2022/03/23 09:22:27;;;;;;;19.30;16.65;;;16.20;55.90;;;;;;5099965;27;20119;-68
2022/03/23 09:24:53;;;;;;;21.55;15.95;;;16.30;54.80;;;;;;5100760;28;20066;-68
2022/03/23 09:27:19;;;;;;;21.30;17.95;;;16.40;54.50;;;;;;5100897;28;20126;-68
2022/03/23 09:29:45;;;;;;;17.75;15.70;;;16.60;52.90;;;;;;5094427;27;20039;-68
2022/03/23 09:32:12;;;;;;;22.30;16.85;;;16.60;53.50;;;;;;5103039;27;20028;-68
2022/03/23 09:34:39;;;;;;;20.35;17.17;;;16.70;52.50;;;;;;5097182;28;20767;-68
2022/03/23 09:39:51;;;;;;;17.48;15.65;;;16.80;53.00;;;;;;5097950;28;20668;-68
2022/03/23 09:42:21;;;;;;;22.95;15.50;;;16.90;53.10;;;;;;5113744;28;20119;-68
2022/03/23 09:44:47;;;;;;;16.52;14.98;;;17.00;51.00;;;;;;5125720;27;20058;-68
2022/03/23 09:47:13;;;;;;;21.80;16.52;;;17.20;52.40;;;;;;5096409;27;20040;-68
2022/03/23 09:49:38;;;;;;;17.00;14.18;;;17.30;51.90;;;;;;5096796;28;20085;-68
2022/03/23 09:52:05;;;;;;;21.63;15.25;;;17.40;50.30;;;;;;5096047;27;20089;-68
2022/03/23 09:54:31;;;;;;;28.92;15.43;;;17.50;50.20;;;;;;5096780;28;20047;-68
2022/03/23 09:56:56;;;;;;;15.68;13.30;;;17.50;49.80;;;;;;5096391;28;20043;-68
2022/03/23 09:59:22;;;;;;;16.10;13.38;;;17.60;47.30;;;;;;5093696;28;20039;-67
2022/03/23 10:01:49;;;;;;;18.13;13.57;;;17.70;46.10;;;;;;5094651;28;20032;-68
2022/03/23 10:04:20;;;;;;;15.10;12.98;;;17.70;47.60;;;;;;5099274;28;20046;-68
2022/03/23 10:07:00;;;;;;;15.90;13.75;;;17.80;46.40;;;;;;5098560;28;20043;-68
2022/03/23 10:09:26;;;;;;;16.27;12.25;;;17.60;42.00;;;;;;5098832;28;20576;-68
2022/03/23 10:12:13;;;;;;;20.20;13.10;;;17.80;44.70;;;;;;5097085;28;20051;-68
2022/03/23 10:15:17;;;;;;;15.95;12.15;;;17.90;45.90;;;;;;5096721;28;20055;-67
2022/03/23 10:17:58;;;;;;;15.27;12.88;;;18.20;44.30;;;;;;5095166;28;20031;-67
2022/03/23 10:20:24;;;;;;;13.07;11.73;;;18.30;45.70;;;;;;5097253;28;20066;-67
2022/03/23 10:22:52;;;;;;;17.40;11.73;;;18.30;44.00;;;;;;5130303;27;20090;-67
2022/03/23 10:25:26;;;;;;;15.27;12.55;;;18.40;42.90;;;;;;5098321;28;20031;-67
2022/03/23 10:27:54;;;;;;;14.40;12.40;;;18.40;44.30;;;;;;5097409;28;20118;-67
2022/03/23 10:30:41;;;;;;;18.65;12.02;;;18.40;43.30;;;;;;5094434;28;20028;-68
2022/03/23 10:33:24;;;;;;;18.05;11.68;;;18.70;44.60;;;;;;5095512;28;20464;-68
2022/03/23 10:35:50;;;;;;;19.10;12.57;;;18.80;43.60;;;;;;5096289;28;20050;-68
2022/03/23 10:38:21;;;;;;;13.40;10.20;;;18.80;43.00;;;;;;5100820;28;20039;-67
2022/03/23 10:40:50;;;;;;;15.88;9.95;;;18.90;42.50;;;;;;5095776;28;20129;-68
2022/03/23 10:43:20;;;;;;;20.38;10.73;;;19.00;41.30;;;;;;5097911;28;20078;-68
2022/03/23 10:45:47;;;;;;;15.07;10.90;;;19.10;41.40;;;;;;5096804;28;20062;-67
2022/03/23 10:48:18;;;;;;;16.15;12.80;;;19.00;41.00;;;;;;5082334;28;20664;-67
2022/03/23 10:50:57;;;;;;;13.13;9.85;;;19.00;42.10;;;;;;5092227;28;20052;-68
2022/03/23 10:53:40;;;;;;;17.20;11.35;;;19.00;41.70;;;;;;5093467;28;20468;-67
2022/03/23 10:56:06;;;;;;;16.30;10.80;;;19.20;42.00;;;;;;5099364;28;20048;-68
2022/03/23 10:58:34;;;;;;;14.93;10.20;;;19.20;41.10;;;;;;5100388;28;20035;-68
2022/03/23 11:01:03;;;;;;;15.10;10.98;;;19.30;41.00;;;;;;5100062;27;20383;-67
2022/03/23 11:03:34;;;;;;;18.90;11.13;;;19.30;42.10;;;;;;5102392;27;20474;-67
2022/03/23 11:06:00;;;;;;;20.40;9.57;;;19.40;41.20;;;;;;5131131;27;20062;-67
2022/03/23 11:08:26;;;;;;;12.88;9.55;;;19.50;41.40;;;;;;5098870;27;20627;-68
2022/03/23 11:16:54;;;;;;;15.88;10.00;;;19.60;41.30;;;;;;5133235;27;20690;-67
2022/03/23 11:19:26;;;;;;;17.48;9.68;;;19.60;40.60;;;;;;5100588;28;20043;-67
2022/03/23 11:22:16;;;;;;;20.70;8.73;;;19.70;41.30;;;;;;5095308;27;20035;-67
2022/03/23 11:24:44;;;;;;;16.45;9.65;;;19.70;40.40;;;;;;5100368;27;20489;-68
2022/03/23 11:27:18;;;;;;;13.25;8.20;;;19.70;41.20;;;;;;5101409;27;20049;-68
2022/03/23 11:29:46;;;;;;;22.80;10.13;;;19.80;40.60;;;;;;5100089;27;20475;-68
2022/03/23 11:32:38;;;;;;;13.20;9.13;;;19.80;40.70;;;;;;5133889;27;20048;-67
2022/03/23 11:35:06;;;;;;;20.92;10.10;;;19.90;42.30;;;;;;5099479;27;20116;-67
2022/03/23 11:37:38;;;;;;;18.75;9.27;;;19.80;39.90;;;;;;5128508;27;20044;-67
2022/03/23 11:40:04;;;;;;;18.67;8.43;;;19.90;40.60;;;;;;5100126;27;20036;-67
2022/03/23 11:42:30;;;;;;;21.25;8.70;;;19.90;39.50;;;;;;5096890;27;20039;-67
2022/03/23 11:44:56;;;;;;;20.75;9.32;;;19.50;39.60;;;;;;5101212;27;20142;-67
2022/03/23 11:47:37;;;;;;;17.73;7.32;;;19.60;40.50;;;;;;5100089;27;20047;-67
2022/03/23 11:50:25;;;;;;;23.38;8.13;;;19.60;41.30;;;;;;5096681;27;20900;-67
2022/03/23 11:53:35;;;;;;;24.50;8.63;;;19.70;40.40;;;;;;5097526;27;20071;-67
2022/03/23 11:56:02;;;;;;;19.95;7.93;;;19.50;39.50;;;;;;5100033;27;20555;-68
2022/03/23 11:58:39;;;;;;;24.30;8.82;;;19.80;41.20;;;;;;5098348;27;20469;-68
2022/03/23 12:01:14;;;;;;;19.20;7.82;;;20.10;42.10;;;;;;5132759;27;20028;-68
2022/03/23 12:03:51;;;;;;;22.45;8.30;;;20.40;42.30;;;;;;5130950;27;20127;-67
2022/03/23 12:06:45;;;;;;;21.33;8.73;;;20.30;39.30;;;;;;5099551;28;20055;-67
2022/03/23 12:09:29;;;;;;;28.05;8.50;;;20.20;41.00;;;;;;5082376;27;20251;-67
2022/03/23 12:11:55;;;;;;;25.05;6.80;;;20.20;42.80;;;;;;5102472;28;20093;-68
2022/03/23 12:14:21;;;;;;;27.73;7.78;;;20.00;40.50;;;;;;5101055;27;20482;-68
2022/03/23 12:16:47;;;;;;;17.15;6.70;;;20.30;39.10;;;;;;5103242;28;20038;-67
2022/03/23 12:19:25;;;;;;;31.23;7.13;;;20.10;39.40;;;;;;5101570;27;20119;-68
2022/03/23 12:22:07;;;;;;;12.82;6.95;;;19.90;41.00;;;;;;5098187;27;20311;-67
2022/03/23 12:24:54;;;;;;;22.48;7.57;;;19.90;39.80;;;;;;5099032;27;20058;-68
2022/03/23 12:27:39;;;;;;;20.23;7.70;;;20.00;40.20;;;;;;5097945;27;20456;-68
2022/03/23 12:30:16;;;;;;;18.77;6.13;;;19.80;39.50;;;;;;5107101;27;20109;-68
2022/03/23 12:32:42;;;;;;;23.35;8.77;;;19.90;41.50;;;;;;5131407;27;20297;-67
2022/03/23 12:35:08;;;;;;;22.67;8.10;;;20.00;40.30;;;;;;5097231;28;20043;-68
2022/03/23 12:37:43;;;;;;;23.15;5.43;;;19.60;40.10;;;;;;5095063;27;20032;-67
2022/03/23 12:40:11;;;;;;;28.02;5.22;;;19.50;38.30;;;;;;5097700;27;20043;-68
2022/03/23 12:42:44;;;;;;;19.13;5.78;;;19.50;40.80;;;;;;5096921;28;20040;-67
2022/03/23 12:45:17;;;;;;;28.27;6.72;;;19.40;39.10;;;;;;5100935;28;20046;-67
2022/03/23 12:47:55;;;;;;;21.63;5.35;;;19.50;40.10;;;;;;5097743;27;20123;-67
2022/03/23 12:58:47;;;;;;;24.27;5.68;;;19.60;39.70;;;;;;5096562;27;20054;-68
2022/03/23 13:01:18;;;;;;;28.98;5.50;;;19.70;40.70;;;;;;5096481;27;20497;-67
2022/03/23 13:03:43;;;;;;;28.55;6.65;;;19.70;39.40;;;;;;5097831;27;21031;-67
2022/03/23 13:06:14;;;;;;;21.65;5.32;;;19.70;40.80;;;;;;5130411;27;20066;-67